Time;durP1;ratioP1;P1;durP2;ratioP2;P2;SDS_P1;SDS_P2;PMS_P1;PMS_P2;Temp;Humidity;BMP_temperature;BMP_pressure;BME280_temperature;BME280_humidity;BME280_pressure;Samples;Min_cycle;Max_cycle;Signal;HPM_P1;HPM_P2
2024/01/11 00:01:47;;;;;;;14.45;11.10;;;-5.50;1.00;;;;;;5112027;28;20233;-75
2024/01/11 00:04:14;;;;;;;13.18;9.70;;;-5.50;1.00;;;;;;5112160;28;20312;-75
2024/01/11 00:06:44;;;;;;;14.68;10.68;;;-5.60;1.00;;;;;;5094348;28;20257;-74
2024/01/11 00:09:11;;;;;;;16.90;11.13;;;-5.60;1.00;;;;;;5114097;27;20262;-74
2024/01/11 00:11:39;;;;;;;15.00;9.60;;;-5.60;1.00;;;;;;5112117;28;20266;-76
2024/01/11 00:14:06;;;;;;;12.85;9.65;;;-5.60;1.00;;;;;;5108313;28;20772;-75
2024/01/11 00:16:34;;;;;;;15.00;10.88;;;-5.70;1.00;;;;;;5110867;27;20243;-74
2024/01/11 00:19:01;;;;;;;15.40;11.95;;;-5.70;1.00;;;;;;5112763;28;21137;-75
2024/01/11 00:21:28;;;;;;;13.30;10.98;;;-5.70;1.00;;;;;;5113912;28;20231;-75
2024/01/11 00:23:55;;;;;;;13.48;10.35;;;-5.60;1.00;;;;;;5114174;28;20235;-74
2024/01/11 00:26:23;;;;;;;16.77;10.50;;;-5.70;1.00;;;;;;5111085;27;21003;-75
2024/01/11 00:28:52;;;;;;;11.57;10.38;;;-5.70;1.00;;;;;;5107095;28;20239;-74
2024/01/11 00:31:19;;;;;;;13.80;9.57;;;-5.70;1.00;;;;;;5110786;28;20227;-71
2024/01/11 00:33:46;;;;;;;15.60;11.48;;;-5.70;1.00;;;;;;5109474;28;20338;-74
2024/01/11 00:36:22;;;;;;;15.88;11.02;;;-5.80;1.00;;;;;;5086762;28;21019;-72
2024/01/11 00:38:52;;;;;;;16.15;10.35;;;-5.80;1.00;;;;;;5106327;27;20316;-71
2024/01/11 00:41:19;;;;;;;12.48;9.80;;;-5.80;1.00;;;;;;5108899;27;20231;-74
2024/01/11 00:43:51;;;;;;;13.85;11.02;;;-5.80;1.00;;;;;;5109895;28;20231;-78
2024/01/11 00:46:19;;;;;;;15.57;10.75;;;-5.80;1.00;;;;;;5112698;28;20353;-79
2024/01/11 00:48:46;;;;;;;14.43;10.65;;;-5.70;1.00;;;;;;5101624;28;21085;-74
2024/01/11 00:51:13;;;;;;;13.63;10.30;;;-5.70;1.00;;;;;;5099671;27;20961;-75
2024/01/11 00:53:40;;;;;;;13.18;10.35;;;-5.70;1.00;;;;;;5108653;28;20255;-74
2024/01/11 00:56:16;;;;;;;11.50;8.65;;;-5.70;1.00;;;;;;5080960;28;20236;-75
2024/01/11 00:58:43;;;;;;;13.18;9.10;;;-5.80;1.00;;;;;;5103402;28;20239;-76
2024/01/11 01:01:12;;;;;;;12.23;9.15;;;-5.80;1.00;;;;;;5104060;28;20243;-76
2024/01/11 01:03:41;;;;;;;14.65;9.73;;;-5.70;1.00;;;;;;5108379;27;20718;-76
2024/01/11 01:06:08;;;;;;;14.23;10.13;;;-5.70;1.00;;;;;;5106302;27;20354;-76
2024/01/11 01:08:35;;;;;;;14.52;9.23;;;-5.70;1.00;;;;;;5109353;28;20235;-75
2024/01/11 01:11:02;;;;;;;12.82;9.13;;;-5.70;1.00;;;;;;5107611;28;20285;-75
2024/01/11 01:13:29;;;;;;;11.00;8.50;;;-5.70;1.00;;;;;;5103497;27;20244;-74
2024/01/11 01:15:57;;;;;;;10.73;8.20;;;-5.80;1.00;;;;;;5107148;27;20239;-77
2024/01/11 01:18:30;;;;;;;9.95;7.35;;;-5.70;1.00;;;;;;5111429;27;20250;-74
2024/01/11 01:20:57;;;;;;;12.55;8.57;;;-5.80;1.00;;;;;;5108388;28;20300;-76
2024/01/11 01:23:24;;;;;;;11.57;8.68;;;-5.70;1.00;;;;;;5109696;28;20286;-76
2024/01/11 01:25:51;;;;;;;13.20;8.85;;;-5.70;1.00;;;;;;5107055;28;20243;-75
2024/01/11 01:28:17;;;;;;;11.85;8.40;;;-5.80;1.00;;;;;;5110171;28;20239;-75
2024/01/11 01:30:45;;;;;;;15.30;9.68;;;-5.70;1.00;;;;;;5105518;27;20322;-76
2024/01/11 01:33:12;;;;;;;10.35;8.48;;;-5.70;1.00;;;;;;5104016;27;20351;-75
2024/01/11 01:35:40;;;;;;;11.00;8.35;;;-5.60;1.00;;;;;;5105032;27;20246;-75
2024/01/11 01:38:07;;;;;;;13.20;8.57;;;-5.60;1.00;;;;;;5102706;27;20235;-77
2024/01/11 01:40:35;;;;;;;13.65;9.23;;;-5.60;1.00;;;;;;5106325;27;20219;-75
2024/01/11 01:43:03;;;;;;;11.65;7.72;;;-5.50;1.00;;;;;;5112892;27;20410;-77
2024/01/11 01:45:30;;;;;;;11.35;7.60;;;-5.50;1.00;;;;;;5101135;28;20239;-79
2024/01/11 01:47:57;;;;;;;13.25;8.85;;;-5.60;1.00;;;;;;5112469;28;20236;-79
2024/01/11 01:50:25;;;;;;;11.45;7.80;;;-5.50;1.00;;;;;;5081032;28;20244;-79
2024/01/11 01:52:54;;;;;;;11.40;8.32;;;-5.50;1.00;;;;;;5108489;28;20235;-74
2024/01/11 01:55:25;;;;;;;10.00;8.52;;;-5.50;1.00;;;;;;5105244;28;20809;-72
2024/01/11 01:57:54;;;;;;;11.93;7.10;;;-5.50;1.00;;;;;;5109108;28;20242;-73
2024/01/11 02:00:21;;;;;;;10.63;7.43;;;-5.50;1.00;;;;;;5105177;28;20289;-74
2024/01/11 02:02:51;;;;;;;8.13;7.22;;;-5.50;1.00;;;;;;5112962;28;20235;-74
2024/01/11 02:05:19;;;;;;;11.57;8.43;;;-5.40;1.00;;;;;;5077439;28;20242;-74
2024/01/11 02:07:47;;;;;;;15.35;9.40;;;-5.40;1.00;;;;;;5101869;28;20232;-74
2024/01/11 02:10:16;;;;;;;12.52;9.05;;;-5.40;1.00;;;;;;5110975;28;20239;-72
2024/01/11 02:12:45;;;;;;;11.30;9.05;;;-5.40;1.00;;;;;;5108203;28;20241;-72
2024/01/11 02:15:14;;;;;;;13.50;9.45;;;-5.30;1.00;;;;;;5108180;28;20723;-75
2024/01/11 02:17:41;;;;;;;12.02;8.00;;;-5.30;1.00;;;;;;5108326;28;20258;-71
2024/01/11 02:20:13;;;;;;;11.80;8.43;;;-5.30;1.00;;;;;;5109347;28;22031;-74
2024/01/11 02:22:43;;;;;;;14.48;10.10;;;-5.20;1.00;;;;;;5103726;28;20235;-75
2024/01/11 02:25:12;;;;;;;10.57;8.40;;;-5.10;1.00;;;;;;5091114;28;20257;-80
2024/01/11 02:27:50;;;;;;;13.07;7.60;;;-5.10;1.00;;;;;;5108746;27;20339;-74
2024/01/11 02:30:20;;;;;;;14.05;8.85;;;-5.00;1.00;;;;;;5108072;28;20294;-73
2024/01/11 02:32:50;;;;;;;13.57;7.40;;;-5.00;1.00;;;;;;5107881;28;20333;-76
2024/01/11 02:35:17;;;;;;;13.75;8.00;;;-5.00;1.00;;;;;;5108269;27;20228;-74
2024/01/11 02:37:45;;;;;;;14.75;8.63;;;-5.00;1.00;;;;;;5108701;27;20243;-74
2024/01/11 02:40:14;;;;;;;14.57;9.35;;;-4.90;1.00;;;;;;5106552;28;20301;-75
2024/01/11 02:42:42;;;;;;;14.20;7.50;;;-4.90;1.00;;;;;;5110047;28;20736;-73
2024/01/11 02:45:11;;;;;;;16.58;9.40;;;-4.90;1.00;;;;;;5108847;27;20259;-74
2024/01/11 02:47:38;;;;;;;15.82;10.23;;;-4.90;1.00;;;;;;5109113;28;20244;-71
2024/01/11 02:50:07;;;;;;;15.35;8.55;;;-4.90;1.00;;;;;;5109056;28;20243;-77
2024/01/11 02:52:34;;;;;;;13.82;8.32;;;-5.00;1.00;;;;;;5105035;28;20824;-74
2024/01/11 02:55:01;;;;;;;12.73;8.48;;;-4.90;1.00;;;;;;5103394;28;20327;-76
2024/01/11 02:57:34;;;;;;;17.63;9.73;;;-5.00;1.00;;;;;;5101742;27;20399;-76
2024/01/11 03:00:02;;;;;;;12.35;8.75;;;-5.00;1.00;;;;;;5109389;27;20347;-76
2024/01/11 03:02:29;;;;;;;15.45;10.75;;;-5.00;1.00;;;;;;5111060;27;20326;-74
2024/01/11 03:04:56;;;;;;;13.35;8.85;;;-5.00;1.00;;;;;;5110433;27;20292;-73
2024/01/11 03:07:23;;;;;;;17.80;10.07;;;-4.90;1.00;;;;;;5108122;28;20477;-74
2024/01/11 03:09:50;;;;;;;16.02;9.65;;;-4.90;1.00;;;;;;5110635;28;20319;-72
2024/01/11 03:12:17;;;;;;;13.88;8.25;;;-4.90;1.00;;;;;;5113211;28;20262;-72
2024/01/11 03:14:45;;;;;;;17.30;10.07;;;-4.90;1.00;;;;;;5110181;28;20227;-74
2024/01/11 03:17:14;;;;;;;13.18;8.68;;;-4.90;1.00;;;;;;5103571;27;21192;-78
2024/01/11 03:19:41;;;;;;;17.23;9.82;;;-5.00;1.00;;;;;;5107295;28;20318;-71
2024/01/11 03:22:08;;;;;;;16.35;8.90;;;-5.00;1.00;;;;;;5112201;28;20333;-72
2024/01/11 03:24:40;;;;;;;12.65;8.02;;;-5.00;1.00;;;;;;5081447;28;21040;-74
2024/01/11 03:27:09;;;;;;;11.82;8.13;;;-5.10;1.00;;;;;;5110017;28;20265;-77
2024/01/11 03:29:39;;;;;;;14.60;8.90;;;-5.10;1.00;;;;;;5112375;28;20236;-77
2024/01/11 03:32:08;;;;;;;13.68;8.25;;;-5.20;1.00;;;;;;5113493;28;20227;-73
2024/01/11 03:34:37;;;;;;;12.85;8.60;;;-5.20;1.00;;;;;;5109221;28;20263;-73
2024/01/11 03:37:04;;;;;;;13.00;8.70;;;-5.20;1.00;;;;;;5112056;28;20231;-73
2024/01/11 03:39:32;;;;;;;15.70;9.60;;;-5.20;1.00;;;;;;5105956;28;21496;-74
2024/01/11 03:42:03;;;;;;;16.10;10.70;;;-5.20;1.00;;;;;;5112438;28;20235;-75
2024/01/11 03:44:32;;;;;;;17.67;10.15;;;-5.30;1.00;;;;;;5108097;27;20313;-73
2024/01/11 03:46:59;;;;;;;13.43;9.85;;;-5.20;1.00;;;;;;5106754;28;20236;-75
2024/01/11 03:49:27;;;;;;;15.50;9.95;;;-5.20;1.00;;;;;;5110845;28;20277;-73
2024/01/11 03:51:55;;;;;;;18.77;10.85;;;-5.10;1.00;;;;;;5107291;27;20232;-72
2024/01/11 03:54:21;;;;;;;17.33;9.85;;;-5.10;1.00;;;;;;5109710;28;20239;-73
2024/01/11 03:56:51;;;;;;;18.52;11.23;;;-5.00;1.00;;;;;;5108807;27;20258;-75
2024/01/11 03:59:18;;;;;;;12.38;9.43;;;-4.90;1.00;;;;;;5109861;27;20227;-77
2024/01/11 04:01:45;;;;;;;13.82;9.35;;;-4.90;1.00;;;;;;5105306;28;20263;-75
2024/01/11 04:04:12;;;;;;;17.83;9.98;;;-4.90;1.00;;;;;;5110073;28;20285;-73
2024/01/11 04:06:41;;;;;;;15.77;9.93;;;-4.80;1.00;;;;;;5109581;27;20296;-74
2024/01/11 04:09:08;;;;;;;15.70;8.70;;;-4.70;1.00;;;;;;5110798;28;20734;-74
2024/01/11 04:11:35;;;;;;;17.60;9.88;;;-4.70;1.00;;;;;;5110178;28;20267;-77
2024/01/11 04:14:03;;;;;;;14.88;9.55;;;-4.60;1.00;;;;;;5112540;28;20238;-75
2024/01/11 04:16:30;;;;;;;14.02;9.77;;;-4.50;1.00;;;;;;5111671;28;20326;-73
2024/01/11 04:18:57;;;;;;;16.75;9.68;;;-4.40;1.00;;;;;;5113028;27;20246;-73
2024/01/11 04:21:28;;;;;;;14.38;9.32;;;-4.40;1.00;;;;;;5103961;28;20330;-76
2024/01/11 04:23:58;;;;;;;14.00;8.98;;;-4.40;1.00;;;;;;5087434;28;20694;-74
2024/01/11 04:26:26;;;;;;;13.25;9.50;;;-4.40;1.00;;;;;;5090068;28;20315;-72
2024/01/11 04:28:54;;;;;;;17.98;9.30;;;-4.40;1.00;;;;;;5090094;28;20236;-72
2024/01/11 04:31:21;;;;;;;19.50;10.30;;;-4.30;1.00;;;;;;5091838;28;20799;-73
2024/01/11 04:33:48;;;;;;;19.08;9.15;;;-4.30;1.00;;;;;;5091088;28;20931;-72
2024/01/11 04:36:17;;;;;;;15.70;11.02;;;-4.20;1.00;;;;;;5090459;28;20291;-75
2024/01/11 04:38:45;;;;;;;18.05;10.40;;;-4.10;1.00;;;;;;5071361;28;20853;-74
2024/01/11 04:41:14;;;;;;;16.00;10.35;;;-4.10;1.00;;;;;;5090322;28;20669;-73
2024/01/11 04:43:43;;;;;;;20.58;11.73;;;-4.00;1.00;;;;;;5091468;28;20236;-73
2024/01/11 04:46:20;;;;;;;16.30;10.90;;;-4.00;1.00;;;;;;5088360;28;20731;-74
2024/01/11 04:48:48;;;;;;;17.80;9.55;;;-3.90;1.00;;;;;;5087661;28;20260;-74
2024/01/11 04:51:17;;;;;;;23.38;10.98;;;-3.90;1.00;;;;;;5088917;28;20327;-76
2024/01/11 04:53:44;;;;;;;22.45;10.65;;;-3.80;1.00;;;;;;5091413;28;20277;-73
2024/01/11 04:56:15;;;;;;;18.52;10.10;;;-3.80;1.00;;;;;;5089772;28;20235;-72
2024/01/11 04:58:46;;;;;;;16.70;9.38;;;-3.70;1.00;;;;;;5087516;28;20885;-77
2024/01/11 05:01:19;;;;;;;21.80;9.23;;;-3.60;1.00;;;;;;5085806;28;21017;-74
2024/01/11 05:03:47;;;;;;;16.20;9.80;;;-3.50;1.00;;;;;;5083290;28;20664;-74
2024/01/11 05:06:18;;;;;;;17.60;11.27;;;-3.50;1.00;;;;;;5089144;28;20270;-76
2024/01/11 05:08:49;;;;;;;21.45;10.05;;;-3.50;1.00;;;;;;5086533;28;20322;-77
2024/01/11 05:11:26;;;;;;;23.50;11.70;;;-3.50;1.00;;;;;;5087075;28;20243;-77
2024/01/11 05:13:55;;;;;;;22.27;10.77;;;-3.40;1.00;;;;;;5087976;28;21057;-77
2024/01/11 05:16:24;;;;;;;24.98;11.70;;;-3.40;1.00;;;;;;5086202;28;20240;-80
2024/01/11 05:18:52;;;;;;;16.67;11.07;;;-3.30;1.00;;;;;;5090045;28;20342;-75
2024/01/11 05:21:19;;;;;;;22.10;11.68;;;-3.30;1.00;;;;;;5090068;28;20236;-76
2024/01/11 05:23:47;;;;;;;18.65;10.65;;;-3.30;1.00;;;;;;5090391;28;20243;-77
2024/01/11 05:26:15;;;;;;;18.70;10.45;;;-3.20;1.00;;;;;;5088987;28;21090;-76
2024/01/11 05:28:45;;;;;;;20.13;10.85;;;-3.10;1.00;;;;;;5084912;28;20251;-80
2024/01/11 05:31:14;;;;;;;23.75;12.50;;;-3.00;1.00;;;;;;5090299;28;21068;-75
2024/01/11 05:33:41;;;;;;;23.02;12.07;;;-3.00;1.00;;;;;;5091775;28;20236;-80
2024/01/11 05:36:09;;;;;;;26.10;12.00;;;-2.90;1.00;;;;;;5093939;28;20236;-76
2024/01/11 05:38:36;;;;;;;27.30;12.02;;;-2.90;1.00;;;;;;5082028;28;21798;-76
2024/01/11 05:41:04;;;;;;;23.63;12.35;;;-2.90;1.00;;;;;;5089661;28;20431;-75
2024/01/11 05:43:31;;;;;;;33.80;15.02;;;-2.80;1.00;;;;;;5084019;28;20228;-73
2024/01/11 05:46:01;;;;;;;23.90;12.70;;;-2.80;1.00;;;;;;5089194;28;20239;-74
2024/01/11 05:48:29;;;;;;;25.23;11.80;;;-2.80;1.00;;;;;;5088628;28;20263;-74
2024/01/11 05:50:56;;;;;;;24.55;12.50;;;-2.80;1.00;;;;;;5085594;28;20292;-75
2024/01/11 05:53:24;;;;;;;25.40;11.85;;;-2.70;1.00;;;;;;5086948;28;20244;-76
2024/01/11 05:55:51;;;;;;;23.65;13.25;;;-2.70;1.00;;;;;;5083019;28;20247;-76
2024/01/11 05:58:19;;;;;;;24.55;13.45;;;-2.70;1.00;;;;;;5086403;28;20240;-78
2024/01/11 06:00:46;;;;;;;22.45;13.15;;;-2.70;1.00;;;;;;5085142;28;20763;-76
2024/01/11 06:03:16;;;;;;;26.35;12.75;;;-2.60;1.00;;;;;;5084903;28;20938;-76
2024/01/11 06:05:43;;;;;;;25.48;13.63;;;-2.60;1.00;;;;;;5083880;28;20307;-75
2024/01/11 06:08:10;;;;;;;25.98;14.25;;;-2.50;1.00;;;;;;5080860;28;21176;-75
2024/01/11 06:10:42;;;;;;;22.98;12.82;;;-2.40;1.00;;;;;;5084829;28;21215;-76
2024/01/11 06:13:10;;;;;;;24.48;13.18;;;-2.40;1.00;;;;;;5089289;28;20228;-76
2024/01/11 06:15:37;;;;;;;23.77;12.98;;;-2.20;1.00;;;;;;5085547;28;20242;-75
2024/01/11 06:18:05;;;;;;;25.17;12.23;;;-2.20;1.00;;;;;;5099042;27;20259;-80
2024/01/11 06:20:34;;;;;;;24.75;13.25;;;-2.10;1.00;;;;;;5090468;28;20247;-76
2024/01/11 06:23:02;;;;;;;28.02;13.68;;;-2.10;1.00;;;;;;5093180;28;20235;-77
2024/01/11 06:25:29;;;;;;;24.00;14.95;;;-2.10;1.00;;;;;;5094388;28;20247;-76
2024/01/11 06:27:56;;;;;;;29.60;13.48;;;-2.10;1.00;;;;;;5094871;28;20240;-75
2024/01/11 06:30:26;;;;;;;23.20;13.45;;;-2.10;1.00;;;;;;5096714;28;20244;-75
2024/01/11 06:32:53;;;;;;;29.08;17.13;;;-2.10;1.00;;;;;;5096194;28;20243;-76
2024/01/11 06:35:20;;;;;;;27.77;14.52;;;-2.10;1.00;;;;;;5095769;28;20243;-74
2024/01/11 06:37:49;;;;;;;28.73;13.88;;;-2.00;1.00;;;;;;5095337;28;20305;-74
2024/01/11 06:40:19;;;;;;;32.03;16.35;;;-2.00;1.00;;;;;;5097850;28;20279;-76
2024/01/11 06:42:46;;;;;;;30.35;15.25;;;-2.00;1.00;;;;;;5099524;27;20236;-77
2024/01/11 06:45:14;;;;;;;33.00;16.27;;;-2.00;1.00;;;;;;5099009;28;20228;-77
2024/01/11 06:47:42;;;;;;;27.60;13.75;;;-2.00;1.00;;;;;;5094084;28;20279;-78
2024/01/11 06:50:10;;;;;;;26.38;15.48;;;-2.00;1.00;;;;;;5092020;28;20286;-76
2024/01/11 06:52:38;;;;;;;27.85;16.05;;;-2.00;1.00;;;;;;5098327;28;20351;-76
2024/01/11 06:55:10;;;;;;;28.27;14.80;;;-2.00;1.00;;;;;;5098431;28;20709;-77
2024/01/11 06:57:39;;;;;;;28.85;15.65;;;-2.00;1.00;;;;;;5099176;28;20289;-78
2024/01/11 07:00:08;;;;;;;28.67;13.90;;;-1.90;1.00;;;;;;5087050;28;20236;-78
2024/01/11 07:02:40;;;;;;;31.35;16.17;;;-1.90;1.00;;;;;;5102109;28;20293;-78
2024/01/11 07:05:08;;;;;;;57.53;51.80;;;-1.90;1.00;;;;;;5101836;28;20244;-78
2024/01/11 07:07:41;;;;;;;31.10;19.60;;;-1.80;1.00;;;;;;5097237;28;20234;-79
2024/01/11 07:10:10;;;;;;;29.33;15.38;;;-1.70;1.00;;;;;;5098241;27;20288;-78
2024/01/11 07:12:49;;;;;;;32.10;16.80;;;-1.80;1.00;;;;;;5097981;28;20238;-82
2024/01/11 07:15:17;;;;;;;23.60;13.38;;;-1.70;1.00;;;;;;5091709;28;20235;-79
2024/01/11 07:17:44;;;;;;;27.08;13.50;;;-1.70;1.00;;;;;;5097692;28;20220;-77
2024/01/11 07:20:13;;;;;;;32.05;14.27;;;-1.70;1.00;;;;;;5095422;28;20999;-75
2024/01/11 07:22:42;;;;;;;27.25;13.75;;;-1.70;1.00;;;;;;5084428;28;20324;-76
2024/01/11 07:25:11;;;;;;;29.65;15.75;;;-1.70;1.00;;;;;;5116719;27;21164;-79
2024/01/11 07:27:38;;;;;;;27.02;14.43;;;-1.70;1.00;;;;;;5110441;28;20231;-75
2024/01/11 07:30:08;;;;;;;30.83;15.05;;;-1.70;1.00;;;;;;5105892;28;20243;-78
2024/01/11 07:32:35;;;;;;;29.88;15.30;;;-1.70;1.00;;;;;;5104791;27;20932;-75
2024/01/11 07:35:02;;;;;;;35.80;17.80;;;-1.70;1.00;;;;;;5109635;27;20314;-77
2024/01/11 07:37:32;;;;;;;33.15;16.20;;;-1.70;1.00;;;;;;5111051;27;20239;-75
2024/01/11 07:39:59;;;;;;;25.98;15.38;;;-1.60;1.00;;;;;;5110158;27;20246;-75
2024/01/11 07:42:27;;;;;;;26.17;15.32;;;-1.60;1.00;;;;;;5112527;27;20236;-75
2024/01/11 07:44:54;;;;;;;27.38;16.30;;;-1.50;1.00;;;;;;5109118;27;21420;-75
2024/01/11 07:47:22;;;;;;;30.15;16.25;;;-1.50;1.00;;;;;;5108804;27;20232;-80
2024/01/11 07:49:49;;;;;;;34.13;17.98;;;-1.50;1.00;;;;;;5110589;27;20244;-74
2024/01/11 07:52:16;;;;;;;36.78;16.40;;;-1.50;1.00;;;;;;5111721;27;20903;-77
2024/01/11 07:54:43;;;;;;;26.17;17.48;;;-1.60;1.00;;;;;;5107988;27;20286;-76
2024/01/11 07:57:10;;;;;;;30.00;15.60;;;-1.50;1.00;;;;;;5112545;27;20232;-76
2024/01/11 07:59:38;;;;;;;31.50;16.63;;;-1.50;1.00;;;;;;5113621;27;20292;-77
2024/01/11 08:02:07;;;;;;;29.55;15.27;;;-1.50;1.00;;;;;;5111000;27;20236;-74
2024/01/11 08:04:38;;;;;;;28.00;16.13;;;-1.50;1.00;;;;;;5112615;27;20239;-75
2024/01/11 08:07:08;;;;;;;29.25;15.88;;;-1.50;1.00;;;;;;5109561;27;20235;-73
2024/01/11 08:09:44;;;;;;;32.40;16.35;;;-1.40;1.00;;;;;;5100408;28;20796;-75
2024/01/11 08:12:13;;;;;;;33.55;16.67;;;-1.40;1.00;;;;;;5108344;27;20246;-75
2024/01/11 08:14:42;;;;;;;33.10;16.38;;;-1.30;1.00;;;;;;5109219;27;20243;-75
2024/01/11 08:17:10;;;;;;;27.90;14.20;;;-1.30;1.00;;;;;;5109216;28;20350;-76
2024/01/11 08:19:37;;;;;;;27.40;16.52;;;-1.30;1.00;;;;;;5109665;27;20243;-75
2024/01/11 08:22:08;;;;;;;29.75;15.50;;;-1.30;1.00;;;;;;5111082;28;20236;-76
2024/01/11 08:24:37;;;;;;;34.20;16.25;;;-1.40;1.00;;;;;;5110250;28;20312;-76
2024/01/11 08:27:04;;;;;;;25.00;15.10;;;-1.40;1.00;;;;;;5108695;28;20239;-75
2024/01/11 08:29:35;;;;;;;25.30;15.55;;;-1.40;1.00;;;;;;5107891;27;20296;-77
2024/01/11 08:32:06;;;;;;;33.88;15.55;;;-1.30;1.00;;;;;;5107777;28;20238;-74
2024/01/11 08:34:35;;;;;;;31.25;17.23;;;-1.30;1.00;;;;;;5110080;27;20238;-73
2024/01/11 08:37:02;;;;;;;25.27;16.17;;;-1.20;1.00;;;;;;5111274;27;20204;-79
2024/01/11 08:39:29;;;;;;;30.55;16.05;;;-1.20;1.00;;;;;;5117702;28;20235;-74
2024/01/11 08:41:56;;;;;;;31.65;15.85;;;-1.20;1.00;;;;;;5097512;28;20283;-77
2024/01/11 08:44:23;;;;;;;27.80;15.77;;;-1.20;1.00;;;;;;5073401;28;20229;-77
2024/01/11 08:46:50;;;;;;;27.00;15.05;;;-1.20;1.00;;;;;;5089033;27;20258;-77
2024/01/11 08:49:20;;;;;;;30.40;15.85;;;-1.10;1.00;;;;;;5111756;27;20292;-78
2024/01/11 08:51:48;;;;;;;26.98;15.70;;;-1.10;1.00;;;;;;5113750;27;20281;-76
2024/01/11 08:54:16;;;;;;;24.00;15.27;;;-1.10;1.00;;;;;;5116093;28;20302;-76
2024/01/11 08:56:43;;;;;;;25.00;15.27;;;-1.10;1.00;;;;;;5109636;28;21050;-76
2024/01/11 08:59:10;;;;;;;31.33;16.15;;;-1.10;1.00;;;;;;5114924;28;20274;-75
2024/01/11 09:01:38;;;;;;;26.38;15.20;;;-1.20;1.00;;;;;;5109081;27;20243;-78
2024/01/11 09:04:05;;;;;;;28.05;15.57;;;-1.10;1.00;;;;;;5115849;27;20243;-79
2024/01/11 09:06:35;;;;;;;24.65;14.80;;;-1.10;1.00;;;;;;5114110;27;20228;-78
2024/01/11 09:09:02;;;;;;;27.80;15.35;;;-1.00;1.00;;;;;;5115292;27;20246;-76
2024/01/11 09:11:29;;;;;;;26.40;14.20;;;-1.00;1.00;;;;;;5116496;27;20277;-79
2024/01/11 09:13:57;;;;;;;35.17;17.88;;;-0.90;1.00;;;;;;5119301;27;20769;-76
2024/01/11 09:16:25;;;;;;;31.23;15.32;;;-0.80;1.00;;;;;;5110171;27;20240;-76
2024/01/11 09:18:56;;;;;;;38.05;17.05;;;-0.80;1.00;;;;;;5118451;28;20258;-74
2024/01/11 09:21:23;;;;;;;26.42;15.38;;;-0.80;1.00;;;;;;5120759;27;20235;-79
2024/01/11 09:23:52;;;;;;;32.08;16.65;;;-0.80;1.00;;;;;;5111759;27;20232;-78
2024/01/11 09:26:19;;;;;;;32.55;19.13;;;-0.70;1.00;;;;;;5113645;27;20435;-83
2024/01/11 09:28:46;;;;;;;28.85;15.32;;;-0.60;1.00;;;;;;5117996;27;20239;-79
2024/01/11 09:31:14;;;;;;;29.73;17.55;;;-0.60;1.00;;;;;;5124258;28;20319;-77
2024/01/11 09:33:42;;;;;;;33.70;16.90;;;-0.60;1.00;;;;;;5106666;28;20461;-78
2024/01/11 09:36:10;;;;;;;28.75;16.27;;;-0.60;1.00;;;;;;5116620;27;20262;-78
2024/01/11 09:38:37;;;;;;;29.70;16.45;;;-0.60;1.00;;;;;;5115483;27;20241;-81
2024/01/11 09:41:09;;;;;;;40.65;17.42;;;-0.60;1.00;;;;;;5112690;27;20331;-75
2024/01/11 09:43:36;;;;;;;31.75;17.23;;;-0.50;1.00;;;;;;5101238;28;21057;-79
2024/01/11 09:46:06;;;;;;;30.05;17.75;;;-0.50;1.00;;;;;;5099215;28;20231;-77
2024/01/11 09:48:35;;;;;;;34.30;17.45;;;-0.40;1.00;;;;;;5110616;28;20259;-77
2024/01/11 09:51:04;;;;;;;33.42;18.55;;;-0.40;1.00;;;;;;5106928;28;20238;-76
2024/01/11 09:53:33;;;;;;;41.92;19.63;;;-0.40;1.00;;;;;;5111936;28;20322;-79
2024/01/11 09:56:01;;;;;;;35.55;19.10;;;-0.40;1.00;;;;;;5109367;27;20703;-76
2024/01/11 09:58:31;;;;;;;32.40;17.40;;;-0.40;1.00;;;;;;5113640;27;20235;-78
2024/01/11 10:00:59;;;;;;;33.33;17.75;;;-0.40;1.00;;;;;;5115931;27;20239;-77
2024/01/11 10:03:30;;;;;;;32.42;19.70;;;-0.40;1.00;;;;;;5120706;28;20234;-80
2024/01/11 10:05:59;;;;;;;31.80;17.98;;;-0.40;1.00;;;;;;5115768;28;20293;-78
2024/01/11 10:08:27;;;;;;;31.98;16.50;;;-0.40;1.00;;;;;;5116471;28;21174;-76
2024/01/11 10:10:54;;;;;;;32.38;18.67;;;-0.40;1.00;;;;;;5112497;28;20235;-81
2024/01/11 10:13:29;;;;;;;31.42;18.27;;;-0.40;1.00;;;;;;5118146;28;20326;-76
2024/01/11 10:16:09;;;;;;;30.00;17.45;;;-0.40;1.00;;;;;;5114056;27;20866;-77
2024/01/11 10:18:36;;;;;;;29.13;17.15;;;-0.40;1.00;;;;;;5117684;28;20235;-76
2024/01/11 10:21:06;;;;;;;29.45;16.58;;;-0.50;1.00;;;;;;5116531;28;20296;-78
2024/01/11 10:23:38;;;;;;;31.75;18.00;;;-0.50;1.00;;;;;;5116492;27;20271;-79
2024/01/11 10:26:09;;;;;;;28.80;17.33;;;-0.50;1.00;;;;;;5109074;28;20235;-77
2024/01/11 10:28:39;;;;;;;33.85;17.65;;;-0.60;1.00;;;;;;5117499;28;20239;-79
2024/01/11 10:31:08;;;;;;;30.20;15.93;;;-0.50;1.00;;;;;;5115999;27;20298;-77
2024/01/11 10:33:35;;;;;;;30.20;16.60;;;-0.40;1.00;;;;;;5110122;28;20358;-77
2024/01/11 10:36:03;;;;;;;29.17;16.48;;;-0.40;1.00;;;;;;5114433;28;20270;-74
2024/01/11 10:38:32;;;;;;;32.25;17.75;;;-0.30;1.00;;;;;;5111021;28;20307;-77
2024/01/11 10:41:04;;;;;;;33.53;17.45;;;-0.40;1.00;;;;;;5120072;27;20782;-75
2024/01/11 10:43:33;;;;;;;26.45;16.30;;;-0.40;1.00;;;;;;5110563;28;20231;-73
2024/01/11 10:46:06;;;;;;;36.15;17.50;;;-0.30;1.00;;;;;;5106593;27;20703;-76
2024/01/11 10:48:39;;;;;;;28.63;18.55;;;-0.30;1.00;;;;;;5093769;28;20318;-74
2024/01/11 10:51:12;;;;;;;32.58;18.05;;;-0.20;1.00;;;;;;5111537;27;20364;-74
2024/01/11 10:53:45;;;;;;;34.42;18.00;;;-0.20;1.00;;;;;;5112135;27;20231;-75
2024/01/11 10:56:13;;;;;;;30.33;18.33;;;-0.10;1.00;;;;;;5111026;28;20242;-75
2024/01/11 10:58:42;;;;;;;30.55;18.40;;;0.00;1.00;;;;;;5112476;28;20242;-77
2024/01/11 11:01:10;;;;;;;30.33;18.23;;;0.10;1.00;;;;;;5114014;27;21093;-77
2024/01/11 11:03:42;;;;;;;28.60;17.95;;;0.20;1.00;;;;;;5115038;27;20239;-78
2024/01/11 11:06:10;;;;;;;28.70;17.30;;;0.20;1.00;;;;;;5116492;27;20227;-78
2024/01/11 11:08:38;;;;;;;32.20;17.95;;;0.20;1.00;;;;;;5092660;28;20244;-79
2024/01/11 11:11:07;;;;;;;31.95;18.60;;;0.20;1.00;;;;;;5107722;28;20242;-76
2024/01/11 11:13:38;;;;;;;32.95;18.50;;;0.20;1.00;;;;;;5112252;27;20235;-76
2024/01/11 11:16:05;;;;;;;26.88;16.27;;;0.10;1.00;;;;;;5110883;27;20235;-73
2024/01/11 11:18:34;;;;;;;32.33;16.98;;;0.10;1.00;;;;;;5112921;27;20265;-75
2024/01/11 11:21:10;;;;;;;30.60;17.65;;;0.10;1.00;;;;;;5114232;27;20242;-75
2024/01/11 11:23:40;;;;;;;27.50;15.13;;;0.10;1.00;;;;;;5112069;27;20345;-73
2024/01/11 11:26:09;;;;;;;29.88;16.65;;;0.10;1.00;;;;;;5111674;28;20308;-78
2024/01/11 11:28:40;;;;;;;25.50;15.50;;;0.10;1.00;;;;;;5111020;28;21414;-74
2024/01/11 11:31:07;;;;;;;26.73;15.98;;;0.10;1.00;;;;;;5109408;27;20330;-75
2024/01/11 11:33:36;;;;;;;32.38;17.00;;;0.00;1.00;;;;;;5113786;28;20354;-76
2024/01/11 11:36:14;;;;;;;28.10;17.38;;;0.10;1.00;;;;;;5114457;28;20227;-77
2024/01/11 11:38:41;;;;;;;28.42;16.08;;;0.10;1.00;;;;;;5112728;27;20237;-77
2024/01/11 11:41:16;;;;;;;27.13;17.27;;;0.00;1.00;;;;;;5106629;27;20269;-77
2024/01/11 11:43:49;;;;;;;25.83;16.85;;;0.00;1.00;;;;;;5123490;27;20318;-76
2024/01/11 11:46:16;;;;;;;25.30;17.40;;;0.10;1.00;;;;;;5122707;28;20290;-75
2024/01/11 11:48:55;;;;;;;23.40;15.20;;;0.10;1.00;;;;;;5116976;28;20246;-80
2024/01/11 11:51:24;;;;;;;22.55;15.02;;;0.20;1.00;;;;;;5113664;28;20237;-76
2024/01/11 11:53:53;;;;;;;30.17;17.60;;;0.20;1.00;;;;;;5097507;28;20231;-77
2024/01/11 11:56:21;;;;;;;26.08;16.83;;;0.20;1.00;;;;;;5103729;28;20297;-79
2024/01/11 11:58:52;;;;;;;28.85;18.80;;;0.30;1.00;;;;;;5121748;28;20881;-77
2024/01/11 12:01:20;;;;;;;26.10;15.90;;;0.40;1.00;;;;;;5118172;28;20241;-78
2024/01/11 12:03:49;;;;;;;24.25;15.98;;;0.40;1.00;;;;;;5116215;28;20258;-75
2024/01/11 12:06:17;;;;;;;27.35;15.30;;;0.40;1.00;;;;;;5124320;27;20242;-78
2024/01/11 12:08:47;;;;;;;24.90;15.32;;;0.40;1.00;;;;;;5127147;28;20259;-78
2024/01/11 12:11:16;;;;;;;33.22;20.17;;;0.40;1.00;;;;;;5126874;28;20228;-80
2024/01/11 12:13:44;;;;;;;25.95;15.07;;;0.30;1.00;;;;;;5116999;27;20239;-78
2024/01/11 12:16:13;;;;;;;27.17;16.50;;;0.40;1.00;;;;;;5115120;28;21980;-76
2024/01/11 12:18:41;;;;;;;28.27;16.55;;;0.40;1.00;;;;;;5117208;27;20628;-77
2024/01/11 12:21:08;;;;;;;30.00;18.55;;;0.40;1.00;;;;;;5120076;27;20253;-79
2024/01/11 12:23:41;;;;;;;23.35;15.00;;;0.40;1.00;;;;;;5119544;28;20227;-75
2024/01/11 12:26:12;;;;;;;25.50;14.85;;;0.40;1.00;;;;;;5118654;27;20240;-75
2024/01/11 12:28:43;;;;;;;24.83;15.02;;;0.40;1.00;;;;;;5117382;27;20227;-76
2024/01/11 12:31:11;;;;;;;25.83;15.95;;;0.40;1.00;;;;;;5123210;28;20235;-78
2024/01/11 12:33:39;;;;;;;26.40;15.15;;;0.50;1.00;;;;;;5116397;27;20231;-77
2024/01/11 12:36:09;;;;;;;23.98;16.27;;;0.50;1.00;;;;;;5114744;27;20699;-76
2024/01/11 12:38:47;;;;;;;28.42;16.92;;;0.60;1.00;;;;;;5111027;28;20239;-80
2024/01/11 12:41:18;;;;;;;25.58;16.48;;;0.70;1.00;;;;;;5113600;27;20321;-79
2024/01/11 12:43:45;;;;;;;25.95;16.23;;;0.70;1.00;;;;;;5121149;28;20231;-76
2024/01/11 12:46:14;;;;;;;28.85;18.27;;;0.80;1.00;;;;;;5115753;27;20265;-76
2024/01/11 12:48:42;;;;;;;29.70;17.70;;;0.80;1.00;;;;;;5114292;27;20286;-76